Bei Facebook empfehlenBei Twitter postenGoogle plusPinterest

Das Wetter im Erzgebirge am 28.03.2015

Wetter und Klima am 28.03.2015 Holzhau im Erzgebirge (630m ü.NN)
Letzte gemessene Temperatur und Uhrzeit der Messung23:45:00 Uhr3.60 °C
Temperatur (Maximum / Höchstwert) und Uhrzeit der Messung16:30:00 Uhr9.30 °C
Temperatur (Minimum / Tiefstwert) und Uhrzeit der Messung20:30:00-0.40 °C
Errechneter Absolutwert der Temperaturschwankungen zwischen Tmin und Tmax des Tages9.70 K
Errechnete Tagesmitteltemperatur3.50521 °C
Gesamt - Niederschlag des Tages (in flüssiger Form)0.51 Liter / m²
Luftdruck (Maximum / Höchstwert) und Zeitpunkt der Messung09:15:00 Uhr1018.10 hPa
Luftdruck (Minimum / Tiefstwert) und Zeitpunkt der Messung23:45:00 Uhr1010.50 hPa
Errechneter Absolutwert der Luftdruckschwankungen des Tages7.60 hPa
Höchste gemessene Windgeschwindigkeit und Uhrzeit der Messung10:45:00 Uhr12.24 km/h
Errechnete Windhäufigkeit in Relation zu den Messwerten des Tages12.50000 %
Niedrigste Windkühle (Windchill) und Zeitpunkt der Messung20:30:00 Uhr-0.40 °C
Taupunkt (Maximum / Höchstwert) und Uhrzeit der Messung09:00:00 Uhr1.80 °C
Taupunkt (Minimum / Tiefstwert) und Uhrzeit der Messung19:45:00-4.00 °C
Anzahl der automatisch eingelesenen Messwerte 96

Detaillierte Wetter- und Klima- Messwerte für den 28.03.2015 in Holzhau im Erzgebirge (630m ü.NN)
ZeitTemperaturLuftdruckRel. LuftfeuchteWindWindrichtungWindchillTaupunktNiederschlag l/m²
23:45:003.60 °C1010.50 hPa80.00 %0.50 °C0.51
23:30:003.80 °C1010.90 hPa80.00 %0.70 °C0.51
23:15:003.50 °C1011.10 hPa80.00 %0.40 °C0.51
23:00:002.80 °C1011.40 hPa81.00 %-0.10 °C0.51
22:45:002.00 °C1011.40 hPa82.00 %-0.70 °C0.51
22:30:001.90 °C1011.50 hPa82.00 %-0.80 °C0.51
22:15:001.80 °C1011.60 hPa82.00 %-0.90 °C0.51
22:00:001.50 °C1011.90 hPa82.00 %-1.20 °C0.51
21:45:001.30 °C1011.80 hPa82.00 %-1.40 °C0.51
21:30:001.00 °C1012.10 hPa82.00 %-1.70 °C0.51
21:15:000.70 °C1012.20 hPa82.00 %-2.00 °C0.51
21:00:000.30 °C1012.50 hPa83.00 %-2.20 °C0.51
20:45:00-0.10 °C1012.90 hPa83.00 %-2.90 °C0.51
20:30:00-0.40 °C1012.80 hPa82.00 %-3.40 °C0.51
20:15:00-0.40 °C1013.10 hPa81.00 %-3.60 °C0.51
20:00:00-0.40 °C1013.30 hPa80.00 %-3.80 °C0.51
19:45:00-0.20 °C1013.50 hPa78.00 %-4.00 °C0.51
19:30:000.20 °C1013.50 hPa77.00 %-3.30 °C0.51
19:15:000.60 °C1013.60 hPa75.00 %-3.30 °C0.51
19:00:001.40 °C1013.60 hPa73.00 %-2.90 °C0.51
18:45:002.30 °C1013.70 hPa70.00 %-2.60 °C0.51
18:30:003.40 °C1013.60 hPa69.00 %-1.70 °C0.51
18:15:004.70 °C1013.80 hPa65.00 %-1.30 °C0.51
18:00:005.80 °C1013.80 hPa61.00 %-1.10 °C0.51
17:45:006.90 °C1013.90 hPa59.00 %-0.50 °C0.51
17:30:007.60 °C1013.80 hPa57.00 %-0.40 °C0.51
17:15:007.90 °C1014.20 hPa57.00 %-0.10 °C0.51
17:00:008.40 °C1014.10 hPa56.00 %0.10 °C0.51
16:45:009.00 °C1014.00 hPa55.00 %6.12 km/hSSO8.30 °C0.50 °C0.51
16:30:009.30 °C1014.20 hPa55.00 %0.70 °C0.51
16:15:009.30 °C1014.20 hPa56.00 %1.00 °C0.51
16:00:008.90 °C1014.30 hPa57.00 %0.90 °C0.51
15:45:008.90 °C1014.80 hPa57.00 %0.90 °C0.51
15:30:008.50 °C1014.60 hPa60.00 %1.20 °C0.51
15:15:007.90 °C1015.10 hPa61.00 %0.90 °C0.51
15:00:008.10 °C1015.10 hPa60.00 %0.80 °C0.51
14:45:007.80 °C1015.20 hPa63.00 %1.20 °C0.51
14:30:007.50 °C1015.60 hPa65.00 %1.40 °C0.51
14:15:007.20 °C1015.70 hPa65.00 %1.10 °C0.51
14:00:006.90 °C1015.80 hPa65.00 %0.80 °C0.51
13:45:007.00 °C1016.00 hPa68.00 %1.50 °C0.51
13:30:006.40 °C1016.40 hPa70.00 %1.30 °C0.51
13:15:005.90 °C1016.50 hPa72.00 %1.20 °C0.51
13:00:005.20 °C1016.70 hPa75.00 %1.10 °C0.51
12:45:004.80 °C1017.10 hPa75.00 %0.80 °C0.51
12:30:004.90 °C1017.20 hPa74.00 %0.70 °C0.51
12:15:005.10 °C1017.20 hPa73.00 %0.70 °C0.51
12:00:005.40 °C1017.10 hPa73.00 %1.00 °C0.51
11:45:004.80 °C1017.30 hPa76.00 %0.90 °C0.51
11:30:004.40 °C1017.40 hPa80.00 %4.32 km/hWNW4.40 °C1.30 °C0.51
11:15:004.20 °C1017.60 hPa80.00 %1.10 °C0.51
11:00:003.90 °C1017.60 hPa81.00 %0.90 °C0.51
10:45:003.90 °C1017.90 hPa81.00 %12.24 km/hWSW0.90 °C0.90 °C0.51
10:30:003.60 °C1017.90 hPa82.00 %0.80 °C0.51
10:15:003.90 °C1017.90 hPa82.00 %1.10 °C0.51
10:00:004.10 °C1017.90 hPa82.00 %1.30 °C0.51
09:45:004.10 °C1018.00 hPa84.00 %1.60 °C0.51
09:30:004.00 °C1017.90 hPa84.00 %1.50 °C0.51
09:15:003.90 °C1018.10 hPa85.00 %1.60 °C0.51
09:00:003.80 °C1017.90 hPa87.00 %1.80 °C0.51
08:45:003.40 °C1018.10 hPa88.00 %1.60 °C0.51
08:30:002.80 °C1018.10 hPa89.00 %8.28 km/hNNW0.50 °C1.20 °C0.51
08:15:002.40 °C1017.80 hPa90.00 %0.90 °C0.51
08:00:002.30 °C1018.00 hPa90.00 %0.80 °C0.51
07:45:002.10 °C1018.10 hPa90.00 %0.60 °C0.51
07:30:001.90 °C1018.00 hPa90.00 %0.40 °C 
07:15:001.80 °C1018.00 hPa91.00 %0.50 °C 
07:00:001.60 °C1018.00 hPa91.00 %0.30 °C 
06:45:001.50 °C1018.00 hPa91.00 %0.20 °C 
06:30:001.40 °C1017.70 hPa91.00 %2.16 km/hS1.40 °C0.10 °C 
06:15:001.30 °C1017.60 hPa90.00 %-0.20 °C 
06:00:001.30 °C1017.50 hPa90.00 %3.24 km/hWNW1.30 °C-0.20 °C 
05:45:001.30 °C1017.50 hPa90.00 %-0.20 °C 
05:30:001.30 °C1017.40 hPa90.00 %-0.20 °C 
05:15:001.40 °C1017.30 hPa91.00 %0.10 °C 
05:00:001.60 °C1017.30 hPa91.00 %0.30 °C 
04:45:001.60 °C1017.20 hPa91.00 %0.30 °C 
04:30:001.80 °C1017.30 hPa91.00 %0.50 °C 
04:15:001.90 °C1017.20 hPa91.00 %0.60 °C 
04:00:001.90 °C1017.30 hPa91.00 %5.04 km/hN0.50 °C0.60 °C 
03:45:001.90 °C1017.20 hPa91.00 %0.60 °C 
03:30:001.90 °C1017.00 hPa91.00 %4.68 km/hWNW1.90 °C0.60 °C 
03:15:001.90 °C1016.80 hPa91.00 %0.60 °C 
03:00:001.90 °C1016.90 hPa91.00 %0.60 °C 
02:45:001.90 °C1016.70 hPa90.00 %0.40 °C 
02:30:001.90 °C1016.80 hPa90.00 %2.52 km/hW1.90 °C0.40 °C 
02:15:002.10 °C1016.70 hPa90.00 %0.60 °C 
02:00:002.20 °C1016.80 hPa89.00 %0.60 °C 
01:45:002.30 °C1016.80 hPa89.00 %0.70 °C 
01:30:002.40 °C1016.90 hPa89.00 %0.80 °C 
01:15:002.50 °C1016.80 hPa89.00 %0.90 °C 
01:00:002.50 °C1016.70 hPa89.00 %0.90 °C 
00:45:002.50 °C1016.70 hPa89.00 %4.32 km/hWNW2.50 °C0.90 °C 
00:30:002.50 °C1016.60 hPa89.00 %0.90 °C 
00:15:002.50 °C1016.70 hPa89.00 %4.68 km/hWNW2.50 °C0.90 °C 
00:00:002.50 °C1016.80 hPa89.00 %5.40 km/hNW1.10 °C0.90 °C 

Permanenter Link zu dieser Seite: Wetter im Erzgebirge am 28.03.2015
Performance-Info: Die Erstellung der Seite / Statistik(en) / Tabelle(n) erforderte 5 Datenbankserver-Abfrage(n) und dauerte 122 Millisekunden. (Dieser Messwert ist von der Gesamt-Auslastung des Servers abhängig.)
Erzgebirge - Wetter | Erzgebirge - Wetter (Mobilgeräte) | Komplette Klimadatenbank